Bruk link Alternativ webside om du vil se statistikk,rapport,graf,analyse og mye mer.

Lynradar: storm image Ingen tordenbyger registrert..



Vårt webkamera mer informasjon My webcam


Kamera på Foreneset mer informasjon webcam on foreneset


Nedbørsradar  rain snow radar


Besøk vår andre værside:

Alternativ webside

iphone versjon

Nettbrett versjon

Foreneset
verstasjon



Ikke nødvendig med spesiell oppmerksomhet.    Det er ingen advarsler

Nære METAR rapporter

     
ENZV - Stavanger
oppdatert: 14-05-2021 04:20
Overskyet  
Overskyet  
   Vind: varierer 1.5 m/s
Vind: varierer 1.5 m/s
Temperatur: 9°C
Wind Chill: 8°C
Duggpunkt: 8°C
Fuktighet: 94%
Barometer: 1005 hPa
Skyer: Overskyet
Sikt: mer enn 10 km
Skydetaljer: Få Skyer 152.4 m,
For det meste skyet 1097.3 m,
Overskyet 1493.5 m
ENZV 140220Z VRB03KT 9999 FEW005 BKN036 OVC049 09/08 Q1005
ENHD - Haugesund
oppdatert: 14-05-2021 04:50
Overskyet  
Overskyet  
   Vind: NNØ 2.6 m/s
Vind: NNØ 2.6 m/s
Temperatur: 9°C
Wind Chill: 8°C
Duggpunkt: 8°C
Fuktighet: 94%
Barometer: 1004 hPa
Skyer: Overskyet
Sikt: 5 km
Skydetaljer: For det meste skyet 91.4 m,
Overskyet 1493.5 m
ENHD 140250Z AUTO 03005KT 5000 BKN003/// OVC049/// 09/08 Q1004
ENBR - Bergen
oppdatert: 14-05-2021 04:50
Klart  
Klart  
   Vind: varierer 1 m/s
Vind: varierer 1 m/s
Temperatur: 9°C
Duggpunkt: 8°C
Fuktighet: 94%
Barometer: 1004 hPa
Sikt: mer enn 10 km
Skydetaljer: Klart
ENBR 140250Z VRB02KT CAVOK 09/08 Q1004 RMK WIND 1200FT 01008KT
ENCN - Kristiansand
oppdatert: 14-05-2021 05:20
Lett yr, Overskyet  
Lett yr, Overskyet  
   Vind: Stille
Vind: Stille
Temperatur: 12°C
Duggpunkt: 11°C
Fuktighet: 94%
Barometer: 1004 hPa
Skyer: Overskyet
Sikt: 6 km
Skydetaljer: For det meste skyet 457.2 m,
Overskyet 1615.4 m
ENCN 140320Z AUTO 00000KT 6000 -DZ BKN015/// OVC053/// 12/11 Q1004
ENGM - Oslo
oppdatert: 14-05-2021 04:50
Klart  
Klart  
   Vind: Nord 3.1 m/s
Vind: Nord 3.1 m/s
Temperatur: 9°C
Wind Chill: 7°C
Duggpunkt: 8°C
Fuktighet: 94%
Barometer: 1006 hPa
Sikt: mer enn 10 km
Skydetaljer: Klart
ENGM 140250Z 01006KT CAVOK 09/08 Q1006
ENVA - Trondheim
oppdatert: 14-05-2021 05:20
Nære Byger, For det meste skyet  
Nære Byger, For det meste skyet  
   Vind: Øst 1.5 m/s
Vind: Øst 1.5 m/s
Temperatur: 8°C
Wind Chill: 7°C
Duggpunkt: 7°C
Fuktighet: 93%
Barometer: 1010 hPa
Skyer: For det meste skyet
Sikt: 6 km
Skydetaljer: Delvis Skyet 121.9 m,
For det meste skyet 365.8 m
ENVA 140320Z 09003KT 6000 VCSH SCT004 BKN012 08/07 Q1010 RMK WIND 670FT VRB02KT
    

Script utviklet av  Saratoga-weather.org Tilrettelagt for malen av  Weerstation Leuven

Du finner vår vær info også på:

UK Metoffice

European Weather Network

WeatherCloud

Weather Underground

Utstyr vi bruker:

Værstsjon
Davis VP2

Værprogram
Weather Display

Davis VP2

Weather Display